createdAt,value
2023-05-23T08:45:33.242Z,4.90
2023-05-23T08:48:39.293Z,5.97
2023-05-23T08:51:45.866Z,5.10
2023-05-23T08:54:53.277Z,5.62
2023-05-23T08:58:01.852Z,5.50
2023-05-23T09:01:28.242Z,5.60
2023-05-23T09:04:35.800Z,5.40
2023-05-23T09:07:48.247Z,5.37
2023-05-23T09:14:03.533Z,5.53
2023-05-23T09:17:13.485Z,6.10
2023-05-23T09:20:28.465Z,5.20
2023-05-23T09:23:37.107Z,5.08
2023-05-23T09:26:41.748Z,5.65
2023-05-23T09:29:54.266Z,4.95
2023-05-23T09:33:08.944Z,4.95
2023-05-23T09:36:08.160Z,4.92
2023-05-23T09:39:19.011Z,4.90
2023-05-23T09:42:19.424Z,4.78
2023-05-23T09:45:25.955Z,4.80
2023-05-23T09:48:32.596Z,4.72
2023-05-23T09:51:38.927Z,4.80
2023-05-23T09:54:45.389Z,4.90
2023-05-23T09:57:53.269Z,6.35
2023-05-23T10:01:01.354Z,5.90
2023-05-23T10:04:29.784Z,5.47
2023-05-23T10:07:35.107Z,5.22
2023-05-23T10:10:40.887Z,5.85
2023-05-23T10:13:47.372Z,5.97
2023-05-23T10:17:18.424Z,5.30
2023-05-23T10:20:30.892Z,6.03
2023-05-23T10:23:36.839Z,6.10
2023-05-23T10:26:42.698Z,5.83
2023-05-23T10:29:48.704Z,6.08
2023-05-23T10:32:55.528Z,5.72
2023-05-23T10:36:07.284Z,6.83
2023-05-23T10:39:20.594Z,5.90
2023-05-23T10:42:39.554Z,6.42
2023-05-23T10:45:45.968Z,7.00
2023-05-23T10:48:56.629Z,6.15
2023-05-23T10:52:05.974Z,7.05
2023-05-23T10:58:33.009Z,6.42
2023-05-23T11:01:39.695Z,6.17
2023-05-23T11:04:46.053Z,5.58
2023-05-23T11:07:52.542Z,6.22
2023-05-23T11:11:18.745Z,6.42
2023-05-23T11:14:25.900Z,6.45
2023-05-23T11:17:30.912Z,6.30
2023-05-23T11:20:42.877Z,6.55
2023-05-23T11:23:57.085Z,7.30
2023-05-23T11:27:10.949Z,6.33
2023-05-23T11:30:20.796Z,6.78
2023-05-23T11:33:27.947Z,6.90
2023-05-23T11:36:35.383Z,6.60
2023-05-23T11:39:40.865Z,7.03
2023-05-23T11:42:46.452Z,7.33
2023-05-23T11:45:56.350Z,6.37
2023-05-23T11:49:02.761Z,6.60
2023-05-23T11:52:08.998Z,6.87
2023-05-23T11:55:16.848Z,6.62
2023-05-23T11:58:23.617Z,5.58
2023-05-23T12:01:30.624Z,6.33
2023-05-23T12:04:35.980Z,5.12
2023-05-23T12:07:40.800Z,5.17
2023-05-23T12:10:47.758Z,5.20
2023-05-23T12:13:54.600Z,5.50
2023-05-23T12:16:59.398Z,5.12
2023-05-23T12:20:06.941Z,4.80
2023-05-23T12:23:13.732Z,4.97
2023-05-23T12:26:20.892Z,5.05
2023-05-23T12:29:26.611Z,5.62
2023-05-23T12:32:31.349Z,5.72
2023-05-23T12:35:39.092Z,5.47
2023-05-23T12:38:51.601Z,5.93
2023-05-23T12:41:58.975Z,5.08
2023-05-23T12:45:07.415Z,5.55
2023-05-23T12:48:15.841Z,6.83
2023-05-23T12:51:20.885Z,7.20
2023-05-23T12:54:27.572Z,7.40
2023-05-23T12:57:33.638Z,5.33
2023-05-23T13:00:39.747Z,5.85
2023-05-23T13:03:39.282Z,5.78
2023-05-23T13:06:31.911Z,5.67
2023-05-23T13:09:38.113Z,5.75
2023-05-23T13:12:46.334Z,4.92
2023-05-23T13:15:52.233Z,5.58
2023-05-23T13:18:59.751Z,4.90
2023-05-23T13:22:07.287Z,6.37
2023-05-23T13:25:14.046Z,6.72
2023-05-23T13:28:20.623Z,5.95
2023-05-23T13:31:19.916Z,6.37
2023-05-23T13:34:26.033Z,6.25
2023-05-23T13:37:32.132Z,3.85
2023-05-23T13:40:38.954Z,2.75
2023-05-23T13:43:46.764Z,3.30
2023-05-23T13:46:54.141Z,3.08
2023-05-23T13:49:59.750Z,2.90
2023-05-23T13:53:06.149Z,2.98
2023-05-23T13:56:12.274Z,5.37
2023-05-23T13:59:17.230Z,3.37
2023-05-23T14:02:22.178Z,2.37
2023-05-23T14:05:28.095Z,2.10
2023-05-23T14:08:33.606Z,2.50
2023-05-23T14:11:38.553Z,2.05
2023-05-23T14:14:43.769Z,2.20
2023-05-23T14:17:50.801Z,2.08
2023-05-23T14:20:59.154Z,3.02
2023-05-23T14:24:06.336Z,1.77
2023-05-23T14:27:13.461Z,1.30
2023-05-23T14:30:20.729Z,1.40
2023-05-23T14:33:26.372Z,1.87
2023-05-23T14:36:31.252Z,1.47
2023-05-23T14:39:36.638Z,1.80
2023-05-23T14:42:42.541Z,1.70
2023-05-23T14:45:48.136Z,1.87
2023-05-23T14:48:54.260Z,1.57
2023-05-23T14:52:00.133Z,3.40
2023-05-23T14:55:06.151Z,4.17
2023-05-23T14:58:12.741Z,1.77
2023-05-23T15:01:19.976Z,2.55
2023-05-23T15:04:27.419Z,2.00
2023-05-23T15:07:34.220Z,1.70
2023-05-23T15:10:39.799Z,1.70
2023-05-23T15:13:46.431Z,2.08
2023-05-23T15:16:55.286Z,3.40
2023-05-23T15:20:04.599Z,1.67
2023-05-23T15:23:10.781Z,1.57
2023-05-23T15:26:15.658Z,1.60
2023-05-23T15:29:24.744Z,1.70
2023-05-23T15:32:24.538Z,1.52
2023-05-23T15:35:19.491Z,2.30
2023-05-23T15:38:20.199Z,2.90
2023-05-23T15:41:26.626Z,3.50
2023-05-23T15:44:32.240Z,3.20
2023-05-23T15:47:37.598Z,2.98
2023-05-23T15:50:44.934Z,2.72
2023-05-23T15:56:59.586Z,2.17
2023-05-23T16:00:06.421Z,2.37
2023-05-23T16:03:12.603Z,1.80
2023-05-23T16:06:19.007Z,1.90
2023-05-23T16:09:23.653Z,2.00
2023-05-23T16:12:29.109Z,2.22
2023-05-23T16:15:35.221Z,2.33
2023-05-23T16:18:41.838Z,2.87
2023-05-23T16:21:48.095Z,2.55
2023-05-23T16:24:55.386Z,2.25
2023-05-23T16:28:02.477Z,2.27
2023-05-23T16:31:08.616Z,2.40
2023-05-23T16:34:13.672Z,2.20
2023-05-23T16:37:19.271Z,2.00
2023-05-23T16:40:25.643Z,2.10
2023-05-23T16:43:34.145Z,2.02
2023-05-23T16:46:39.718Z,2.08
2023-05-23T16:49:47.012Z,1.70
2023-05-23T16:52:54.289Z,1.72
2023-05-23T16:56:00.874Z,2.20
2023-05-23T16:59:07.475Z,2.02
2023-05-23T17:02:13.496Z,2.25
2023-05-23T17:05:19.580Z,1.95
2023-05-23T17:08:25.578Z,2.00
2023-05-23T17:11:32.549Z,2.67
2023-05-23T17:14:38.910Z,2.72
2023-05-23T17:17:43.707Z,4.15
2023-05-23T17:20:50.356Z,4.22
2023-05-23T17:23:55.993Z,3.40
2023-05-23T17:27:01.405Z,2.35
2023-05-23T17:30:06.837Z,2.30
2023-05-23T17:33:12.220Z,2.65
2023-05-23T17:36:18.834Z,3.00
2023-05-23T17:39:23.795Z,2.47
2023-05-23T17:42:29.980Z,3.08
2023-05-23T17:45:35.378Z,3.58
2023-05-23T17:48:47.537Z,4.50
2023-05-23T17:51:49.116Z,2.98
2023-05-23T17:54:55.068Z,3.20
2023-05-23T17:58:01.405Z,3.40
2023-05-23T18:01:08.081Z,3.62
2023-05-23T18:04:14.038Z,3.70
2023-05-23T18:07:20.061Z,3.27
2023-05-23T18:10:26.860Z,3.45
2023-05-23T18:13:32.796Z,4.20
2023-05-23T18:16:38.680Z,3.42
2023-05-23T18:19:43.572Z,3.27
2023-05-23T18:22:50.255Z,3.50
2023-05-23T18:25:56.161Z,4.65
2023-05-23T18:29:02.469Z,3.70
2023-05-23T18:32:00.864Z,4.22
2023-05-23T18:34:53.699Z,3.95
2023-05-23T18:37:58.798Z,4.10
2023-05-23T18:41:05.474Z,3.85
2023-05-23T18:44:05.139Z,4.10
2023-05-23T18:46:51.076Z,4.25
2023-05-23T18:49:42.969Z,4.33
2023-05-23T18:52:34.751Z,4.72
2023-05-23T18:55:39.387Z,4.58
2023-05-23T18:58:46.890Z,5.40
2023-05-23T19:01:52.672Z,4.22
2023-05-23T19:05:00.190Z,4.97
2023-05-23T19:08:06.243Z,5.40
2023-05-23T19:11:12.712Z,4.67
2023-05-23T19:14:20.775Z,6.95
2023-05-23T19:17:26.747Z,5.85
2023-05-23T19:20:32.042Z,6.00
2023-05-23T19:23:38.114Z,5.47
2023-05-23T19:26:37.482Z,5.37
2023-05-23T19:29:43.471Z,5.93
2023-05-23T19:32:48.668Z,6.17
2023-05-23T19:35:54.228Z,5.85
2023-05-23T19:39:02.117Z,5.75
2023-05-23T19:42:08.249Z,6.10
2023-05-23T19:45:14.584Z,6.40
2023-05-23T19:48:20.376Z,5.92
2023-05-23T19:51:25.139Z,6.50
2023-05-23T19:54:30.903Z,6.42
2023-05-23T19:57:35.618Z,6.50
2023-05-23T20:00:42.342Z,6.35
2023-05-23T20:03:47.821Z,6.47
2023-05-23T20:06:54.795Z,5.87
2023-05-23T20:09:59.597Z,6.70
2023-05-23T20:13:05.728Z,6.55
2023-05-23T20:16:10.854Z,6.33
2023-05-23T20:19:17.685Z,6.65
2023-05-23T20:22:24.250Z,6.72
2023-05-23T20:25:30.841Z,6.60
2023-05-23T20:28:36.816Z,6.15
2023-05-23T20:31:43.498Z,6.12
2023-05-23T20:34:42.430Z,7.58
2023-05-23T20:37:50.673Z,5.90
2023-05-23T20:40:59.437Z,6.00
2023-05-23T20:44:07.067Z,6.37
2023-05-23T20:47:13.671Z,6.87
2023-05-23T20:50:22.002Z,6.35
2023-05-23T20:53:27.465Z,7.10
2023-05-23T20:56:34.315Z,7.00
2023-05-23T20:59:39.128Z,8.00
2023-05-23T21:02:44.097Z,7.85
2023-05-23T21:05:49.163Z,7.25
2023-05-23T21:08:55.766Z,8.28
2023-05-23T21:12:01.821Z,7.80
2023-05-23T21:15:07.327Z,7.60
2023-05-23T21:18:12.179Z,7.75
2023-05-23T21:21:17.944Z,7.97
2023-05-23T21:24:23.607Z,8.95
2023-05-23T21:27:23.982Z,8.70
2023-05-23T21:30:28.816Z,8.23
2023-05-23T21:33:34.499Z,7.78
2023-05-23T21:36:40.240Z,7.87
2023-05-23T21:39:51.917Z,7.78
2023-05-23T21:42:54.782Z,7.08
2023-05-23T21:46:01.337Z,7.03
2023-05-23T21:48:59.992Z,7.47
2023-05-23T21:51:52.887Z,7.65
2023-05-23T21:54:58.380Z,7.53
2023-05-23T21:58:03.809Z,7.10
2023-05-23T22:01:09.626Z,7.60
2023-05-23T22:04:15.528Z,7.67
2023-05-23T22:07:20.089Z,8.28
2023-05-23T22:10:25.838Z,9.13
2023-05-23T22:13:31.376Z,8.35
2023-05-23T22:16:39.910Z,8.15
2023-05-23T22:19:46.990Z,8.33
2023-05-23T22:22:52.748Z,9.18
2023-05-23T22:25:59.043Z,8.28
2023-05-23T22:29:04.510Z,8.30
2023-05-23T22:32:11.099Z,9.03
2023-05-23T22:35:15.888Z,9.35
2023-05-23T22:38:21.944Z,8.78
2023-05-23T22:41:27.249Z,8.65
2023-05-23T22:44:33.743Z,8.43
2023-05-23T22:47:39.080Z,8.93
2023-05-23T22:50:46.584Z,9.15
2023-05-23T22:53:52.500Z,8.95
2023-05-23T22:56:58.488Z,9.30
2023-05-23T23:00:04.216Z,10.45
2023-05-23T23:03:10.442Z,9.03
2023-05-23T23:06:17.197Z,9.05
2023-05-23T23:09:24.805Z,8.70
2023-05-23T23:12:31.074Z,8.73
2023-05-23T23:15:37.054Z,8.60
2023-05-23T23:18:42.998Z,8.33
2023-05-23T23:21:49.420Z,8.00
2023-05-23T23:24:55.351Z,8.30
2023-05-23T23:28:01.267Z,7.92
2023-05-23T23:31:07.079Z,7.75
2023-05-23T23:34:12.612Z,7.47
2023-05-23T23:37:17.489Z,8.35
2023-05-23T23:40:24.216Z,7.95
2023-05-23T23:43:30.563Z,8.05
2023-05-23T23:46:36.242Z,7.53
2023-05-23T23:49:40.624Z,7.62
2023-05-23T23:52:46.642Z,7.45
2023-05-23T23:55:53.546Z,7.58
2023-05-23T23:58:59.674Z,7.45
